Terminal Aerodrome Forecast
Issued by NWS Corpus Christi, TX

Home | Current Version | Previous Version | Text Only | Print | Product List | Glossary On
Versions: 1 2 3 4 5 6 7 8 9 10 11 12 13 14 15 16
000
FTUS44 KCRP 282327
TAFCRP
TAF
KCRP 282327Z 2900/2924 09010KT P6SM FEW025 SCT250
     FM290300 15005KT P6SM FEW018
     FM291400 17011KT P6SM VCSH SCT025 BKN035
     FM292100 14016G23KT P6SM SCT040=

USA.gov is the U.S. government's official web portal to all federal, state and local government web resources and services.